메인 페이지
METAR-TAF:

METAR-TAF

공항 :

Lebanon, 뉴햄프셔, 미국

위도: 43-37-38N, 경도: 072-18-21W, 고도: 182m

현재 날씨관측

예보는 1 시간 1분 전, 18:53시(UTC)에 발표되었습니다.
무풍
온도 25°C
습도 36%
기압 1015 hPa
시정: 16.1km
맑음

METAR: KLEB 171853Z 00000KT 10SM CLR 25/09 A2996 RMK AO2 SLP137 T02500094

시각: 15:54 (19:54 UTC)

예보

예보는 2 시간 27분 전, 17:27시(UTC)에 발표되었습니다.
예보 대상 시간: 17일 18시부터 18일 18시까지 (UTC)
여러 방향의 바람 3kt
시정: 10km
고도 5000ft 상공 구름 조금
18일 0000시부터 (UTC)
kt
시정: 10km
고도 25000ft 상공 구름 보통
18일 1300시부터 (UTC)
여러 방향의 바람 3kt
시정: 10km
고도 25000ft 상공 구름 많음

TAF: KLEB 171727Z 1718/1818 VRB03KT P6SM FEW050 FM180000 00000KT P6SM SCT250 FM181300 VRB03KT P6SM BKN250

4,000개 이상의 공항 관측 자료 및 예보 (METAR 및 TAF 보고).

지도상에서 검색 가능한 기상관측소가 노란 점과 빨간 점으로 표시되어 있습니다.

기상관측소 명을 보려면 표시 위로 마우스를 이동하세요.

날씨 관측과 예보를 보려면 클릭하세요.

지도 변경 : 확대하려면 엑스 표시가 있는 녹색 버튼, 축소하려면 빼기 표시가 있는 녹색 버튼, 다음 페이지의 지도를 보려면 녹색 화살표를 클릭하세요.


METAR-TAF: